sensor_id;sensor_type;location;lat;lon;timestamp;P1;durP1;ratioP1;P2;durP2;ratioP2
68196;SDS011;55019;49.382;11.358;2023-12-20T00:00:59;3.80;;;2.25;;
68196;SDS011;55019;49.382;11.358;2023-12-20T00:03:25;4.68;;;2.47;;
68196;SDS011;55019;49.382;11.358;2023-12-20T00:05:50;5.28;;;2.20;;
68196;SDS011;55019;49.382;11.358;2023-12-20T00:08:16;5.80;;;2.38;;
68196;SDS011;55019;49.382;11.358;2023-12-20T00:10:45;5.45;;;2.35;;
68196;SDS011;55019;49.382;11.358;2023-12-20T00:13:11;3.88;;;2.08;;
68196;SDS011;55019;49.382;11.358;2023-12-20T00:15:36;3.83;;;2.40;;
68196;SDS011;55019;49.382;11.358;2023-12-20T00:18:02;2.60;;;2.03;;
68196;SDS011;55019;49.382;11.358;2023-12-20T00:20:28;4.78;;;2.35;;
68196;SDS011;55019;49.382;11.358;2023-12-20T00:22:57;3.75;;;2.10;;
68196;SDS011;55019;49.382;11.358;2023-12-20T00:25:23;4.57;;;2.40;;
68196;SDS011;55019;49.382;11.358;2023-12-20T00:27:49;3.70;;;2.50;;
68196;SDS011;55019;49.382;11.358;2023-12-20T00:30:15;4.47;;;2.58;;
68196;SDS011;55019;49.382;11.358;2023-12-20T00:32:41;4.30;;;2.15;;
68196;SDS011;55019;49.382;11.358;2023-12-20T00:35:13;4.60;;;2.20;;
68196;SDS011;55019;49.382;11.358;2023-12-20T00:37:39;4.53;;;2.63;;
68196;SDS011;55019;49.382;11.358;2023-12-20T00:40:07;4.10;;;2.50;;
68196;SDS011;55019;49.382;11.358;2023-12-20T00:42:33;5.20;;;2.30;;
68196;SDS011;55019;49.382;11.358;2023-12-20T00:44:59;5.40;;;2.90;;
68196;SDS011;55019;49.382;11.358;2023-12-20T00:47:25;4.80;;;2.85;;
68196;SDS011;55019;49.382;11.358;2023-12-20T00:49:51;4.68;;;2.28;;
68196;SDS011;55019;49.382;11.358;2023-12-20T00:52:18;4.43;;;2.42;;
68196;SDS011;55019;49.382;11.358;2023-12-20T00:54:44;4.47;;;2.53;;
68196;SDS011;55019;49.382;11.358;2023-12-20T00:57:09;6.45;;;2.60;;
68196;SDS011;55019;49.382;11.358;2023-12-20T00:59:35;4.50;;;2.50;;
68196;SDS011;55019;49.382;11.358;2023-12-20T01:02:01;5.32;;;2.83;;
68196;SDS011;55019;49.382;11.358;2023-12-20T01:04:27;4.75;;;2.90;;
68196;SDS011;55019;49.382;11.358;2023-12-20T01:06:53;5.72;;;2.85;;
68196;SDS011;55019;49.382;11.358;2023-12-20T01:09:19;6.25;;;2.38;;
68196;SDS011;55019;49.382;11.358;2023-12-20T01:11:45;5.18;;;2.67;;
68196;SDS011;55019;49.382;11.358;2023-12-20T01:14:13;5.32;;;2.97;;
68196;SDS011;55019;49.382;11.358;2023-12-20T01:16:39;6.18;;;3.20;;
68196;SDS011;55019;49.382;11.358;2023-12-20T01:19:05;5.07;;;2.63;;
68196;SDS011;55019;49.382;11.358;2023-12-20T01:21:30;7.70;;;2.80;;
68196;SDS011;55019;49.382;11.358;2023-12-20T01:23:56;8.38;;;3.30;;
68196;SDS011;55019;49.382;11.358;2023-12-20T01:26:22;5.63;;;3.00;;
68196;SDS011;55019;49.382;11.358;2023-12-20T01:28:48;5.30;;;2.83;;
68196;SDS011;55019;49.382;11.358;2023-12-20T01:31:13;4.15;;;2.75;;
68196;SDS011;55019;49.382;11.358;2023-12-20T01:33:39;5.53;;;2.58;;
68196;SDS011;55019;49.382;11.358;2023-12-20T01:36:06;4.85;;;2.92;;
68196;SDS011;55019;49.382;11.358;2023-12-20T01:38:38;5.88;;;3.13;;
68196;SDS011;55019;49.382;11.358;2023-12-20T01:41:04;4.45;;;3.15;;
68196;SDS011;55019;49.382;11.358;2023-12-20T01:43:30;5.97;;;3.05;;
68196;SDS011;55019;49.382;11.358;2023-12-20T01:45:56;5.65;;;3.50;;
68196;SDS011;55019;49.382;11.358;2023-12-20T01:48:23;7.45;;;3.13;;
68196;SDS011;55019;49.382;11.358;2023-12-20T01:50:52;4.28;;;2.47;;
68196;SDS011;55019;49.382;11.358;2023-12-20T01:53:19;4.57;;;2.75;;
68196;SDS011;55019;49.382;11.358;2023-12-20T01:58:13;5.22;;;2.40;;
68196;SDS011;55019;49.382;11.358;2023-12-20T02:00:40;4.32;;;2.65;;
68196;SDS011;55019;49.382;11.358;2023-12-20T02:03:06;7.15;;;3.00;;
68196;SDS011;55019;49.382;11.358;2023-12-20T02:05:32;5.05;;;2.60;;
68196;SDS011;55019;49.382;11.358;2023-12-20T02:08:00;4.40;;;2.22;;
68196;SDS011;55019;49.382;11.358;2023-12-20T02:10:26;4.72;;;2.38;;
68196;SDS011;55019;49.382;11.358;2023-12-20T02:12:52;5.38;;;2.72;;
68196;SDS011;55019;49.382;11.358;2023-12-20T02:15:18;4.53;;;2.60;;
68196;SDS011;55019;49.382;11.358;2023-12-20T02:17:45;4.00;;;2.53;;
68196;SDS011;55019;49.382;11.358;2023-12-20T02:20:12;5.93;;;2.47;;
68196;SDS011;55019;49.382;11.358;2023-12-20T02:22:38;4.75;;;2.55;;
68196;SDS011;55019;49.382;11.358;2023-12-20T02:25:04;5.78;;;2.60;;
68196;SDS011;55019;49.382;11.358;2023-12-20T02:27:30;6.13;;;2.60;;
68196;SDS011;55019;49.382;11.358;2023-12-20T02:29:56;4.72;;;2.30;;
68196;SDS011;55019;49.382;11.358;2023-12-20T02:32:22;4.05;;;1.80;;
68196;SDS011;55019;49.382;11.358;2023-12-20T02:34:53;4.15;;;2.35;;
68196;SDS011;55019;49.382;11.358;2023-12-20T02:37:19;4.15;;;2.22;;
68196;SDS011;55019;49.382;11.358;2023-12-20T02:39:50;2.60;;;1.80;;
68196;SDS011;55019;49.382;11.358;2023-12-20T02:42:16;4.95;;;2.20;;
68196;SDS011;55019;49.382;11.358;2023-12-20T02:44:42;3.78;;;2.20;;
68196;SDS011;55019;49.382;11.358;2023-12-20T02:47:07;4.25;;;1.85;;
68196;SDS011;55019;49.382;11.358;2023-12-20T02:49:34;3.35;;;1.30;;
68196;SDS011;55019;49.382;11.358;2023-12-20T02:51:59;2.70;;;1.15;;
68196;SDS011;55019;49.382;11.358;2023-12-20T02:54:25;1.20;;;0.70;;
68196;SDS011;55019;49.382;11.358;2023-12-20T02:56:51;1.00;;;0.57;;
68196;SDS011;55019;49.382;11.358;2023-12-20T02:59:16;0.68;;;0.30;;
68196;SDS011;55019;49.382;11.358;2023-12-20T03:01:46;0.38;;;0.20;;
68196;SDS011;55019;49.382;11.358;2023-12-20T03:04:12;0.82;;;0.30;;
68196;SDS011;55019;49.382;11.358;2023-12-20T03:06:38;0.40;;;0.28;;
68196;SDS011;55019;49.382;11.358;2023-12-20T03:09:04;1.40;;;0.30;;
68196;SDS011;55019;49.382;11.358;2023-12-20T03:11:30;0.43;;;0.20;;
68196;SDS011;55019;49.382;11.358;2023-12-20T03:13:56;0.30;;;0.03;;
68196;SDS011;55019;49.382;11.358;2023-12-20T03:16:22;0.10;;;0.00;;
68196;SDS011;55019;49.382;11.358;2023-12-20T03:18:48;0.10;;;0.00;;
68196;SDS011;55019;49.382;11.358;2023-12-20T03:21:14;0.08;;;0.00;;
68196;SDS011;55019;49.382;11.358;2023-12-20T03:23:40;0.70;;;0.15;;
68196;SDS011;55019;49.382;11.358;2023-12-20T03:26:07;0.30;;;0.00;;
68196;SDS011;55019;49.382;11.358;2023-12-20T03:28:33;0.30;;;0.10;;
68196;SDS011;55019;49.382;11.358;2023-12-20T03:30:59;0.00;;;0.00;;
68196;SDS011;55019;49.382;11.358;2023-12-20T03:33:25;0.10;;;0.00;;
68196;SDS011;55019;49.382;11.358;2023-12-20T03:35:51;0.43;;;0.00;;
68196;SDS011;55019;49.382;11.358;2023-12-20T03:38:17;0.75;;;0.00;;
68196;SDS011;55019;49.382;11.358;2023-12-20T03:40:42;0.20;;;0.00;;
68196;SDS011;55019;49.382;11.358;2023-12-20T03:43:08;0.22;;;0.00;;
68196;SDS011;55019;49.382;11.358;2023-12-20T03:45:35;0.10;;;0.00;;
68196;SDS011;55019;49.382;11.358;2023-12-20T03:48:01;0.10;;;0.08;;
68196;SDS011;55019;49.382;11.358;2023-12-20T03:50:28;0.15;;;0.00;;
68196;SDS011;55019;49.382;11.358;2023-12-20T03:52:54;0.00;;;0.00;;
68196;SDS011;55019;49.382;11.358;2023-12-20T03:55:20;0.10;;;0.00;;
68196;SDS011;55019;49.382;11.358;2023-12-20T03:57:46;0.20;;;0.00;;
68196;SDS011;55019;49.382;11.358;2023-12-20T04:00:11;0.00;;;0.00;;
68196;SDS011;55019;49.382;11.358;2023-12-20T04:02:38;0.95;;;0.08;;
68196;SDS011;55019;49.382;11.358;2023-12-20T04:05:05;0.00;;;0.00;;
68196;SDS011;55019;49.382;11.358;2023-12-20T04:07:32;0.00;;;0.00;;
68196;SDS011;55019;49.382;11.358;2023-12-20T04:09:58;0.08;;;0.00;;
68196;SDS011;55019;49.382;11.358;2023-12-20T04:12:24;0.30;;;0.10;;
68196;SDS011;55019;49.382;11.358;2023-12-20T04:14:50;0.17;;;0.10;;
68196;SDS011;55019;49.382;11.358;2023-12-20T04:17:15;0.30;;;0.10;;
68196;SDS011;55019;49.382;11.358;2023-12-20T04:19:42;1.17;;;0.65;;
68196;SDS011;55019;49.382;11.358;2023-12-20T04:22:08;0.10;;;0.10;;
68196;SDS011;55019;49.382;11.358;2023-12-20T04:24:34;0.50;;;0.20;;
68196;SDS011;55019;49.382;11.358;2023-12-20T04:27:00;0.98;;;0.20;;
68196;SDS011;55019;49.382;11.358;2023-12-20T04:29:26;0.30;;;0.15;;
68196;SDS011;55019;49.382;11.358;2023-12-20T04:31:52;0.70;;;0.20;;
68196;SDS011;55019;49.382;11.358;2023-12-20T04:34:18;1.38;;;0.20;;
68196;SDS011;55019;49.382;11.358;2023-12-20T04:36:44;0.20;;;0.20;;
68196;SDS011;55019;49.382;11.358;2023-12-20T04:39:11;0.63;;;0.20;;
68196;SDS011;55019;49.382;11.358;2023-12-20T04:41:38;0.85;;;0.20;;
68196;SDS011;55019;49.382;11.358;2023-12-20T04:44:04;1.40;;;0.20;;
68196;SDS011;55019;49.382;11.358;2023-12-20T04:46:29;0.40;;;0.20;;
68196;SDS011;55019;49.382;11.358;2023-12-20T04:48:55;0.40;;;0.20;;
68196;SDS011;55019;49.382;11.358;2023-12-20T04:51:21;0.10;;;0.10;;
68196;SDS011;55019;49.382;11.358;2023-12-20T04:53:48;0.95;;;0.32;;
68196;SDS011;55019;49.382;11.358;2023-12-20T04:56:14;0.28;;;0.20;;
68196;SDS011;55019;49.382;11.358;2023-12-20T04:58:39;0.75;;;0.20;;
68196;SDS011;55019;49.382;11.358;2023-12-20T05:01:05;0.40;;;0.20;;
68196;SDS011;55019;49.382;11.358;2023-12-20T05:03:32;0.55;;;0.15;;
68196;SDS011;55019;49.382;11.358;2023-12-20T05:05:58;0.60;;;0.28;;
68196;SDS011;55019;49.382;11.358;2023-12-20T05:08:23;0.65;;;0.30;;
68196;SDS011;55019;49.382;11.358;2023-12-20T05:10:50;0.40;;;0.32;;
68196;SDS011;55019;49.382;11.358;2023-12-20T05:13:19;0.50;;;0.50;;
68196;SDS011;55019;49.382;11.358;2023-12-20T05:15:44;0.35;;;0.22;;
68196;SDS011;55019;49.382;11.358;2023-12-20T05:18:10;0.45;;;0.20;;
68196;SDS011;55019;49.382;11.358;2023-12-20T05:20:36;0.40;;;0.28;;
68196;SDS011;55019;49.382;11.358;2023-12-20T05:23:02;0.50;;;0.30;;
68196;SDS011;55019;49.382;11.358;2023-12-20T05:25:28;0.85;;;0.43;;
68196;SDS011;55019;49.382;11.358;2023-12-20T05:27:54;0.90;;;0.43;;
68196;SDS011;55019;49.382;11.358;2023-12-20T05:30:22;0.60;;;0.50;;
68196;SDS011;55019;49.382;11.358;2023-12-20T05:32:48;0.63;;;0.32;;
68196;SDS011;55019;49.382;11.358;2023-12-20T05:35:14;0.55;;;0.40;;
68196;SDS011;55019;49.382;11.358;2023-12-20T05:37:41;0.63;;;0.32;;
68196;SDS011;55019;49.382;11.358;2023-12-20T05:40:07;0.73;;;0.40;;
68196;SDS011;55019;49.382;11.358;2023-12-20T05:42:36;0.28;;;0.20;;
68196;SDS011;55019;49.382;11.358;2023-12-20T05:45:02;0.85;;;0.50;;
68196;SDS011;55019;49.382;11.358;2023-12-20T05:47:28;1.35;;;0.30;;
68196;SDS011;55019;49.382;11.358;2023-12-20T05:49:53;1.00;;;0.57;;
68196;SDS011;55019;49.382;11.358;2023-12-20T05:52:19;1.02;;;0.32;;
68196;SDS011;55019;49.382;11.358;2023-12-20T05:54:45;1.75;;;0.40;;
68196;SDS011;55019;49.382;11.358;2023-12-20T05:57:11;0.70;;;0.20;;
68196;SDS011;55019;49.382;11.358;2023-12-20T05:59:36;0.50;;;0.22;;
68196;SDS011;55019;49.382;11.358;2023-12-20T06:02:03;0.57;;;0.28;;
68196;SDS011;55019;49.382;11.358;2023-12-20T06:04:29;0.77;;;0.30;;
68196;SDS011;55019;49.382;11.358;2023-12-20T06:06:55;0.70;;;0.40;;
68196;SDS011;55019;49.382;11.358;2023-12-20T06:09:21;0.77;;;0.30;;
68196;SDS011;55019;49.382;11.358;2023-12-20T06:11:47;0.60;;;0.35;;
68196;SDS011;55019;49.382;11.358;2023-12-20T06:14:12;0.57;;;0.30;;
68196;SDS011;55019;49.382;11.358;2023-12-20T06:16:38;0.22;;;0.20;;
68196;SDS011;55019;49.382;11.358;2023-12-20T06:19:04;0.52;;;0.30;;
68196;SDS011;55019;49.382;11.358;2023-12-20T06:21:30;0.50;;;0.20;;
68196;SDS011;55019;49.382;11.358;2023-12-20T06:23:55;0.60;;;0.35;;
68196;SDS011;55019;49.382;11.358;2023-12-20T06:26:21;1.58;;;0.60;;
68196;SDS011;55019;49.382;11.358;2023-12-20T06:28:47;0.88;;;0.43;;
68196;SDS011;55019;49.382;11.358;2023-12-20T06:31:12;1.67;;;0.43;;
68196;SDS011;55019;49.382;11.358;2023-12-20T06:33:38;1.23;;;0.52;;
68196;SDS011;55019;49.382;11.358;2023-12-20T06:36:06;0.60;;;0.43;;
68196;SDS011;55019;49.382;11.358;2023-12-20T06:38:33;0.50;;;0.40;;
68196;SDS011;55019;49.382;11.358;2023-12-20T06:40:59;0.40;;;0.40;;
68196;SDS011;55019;49.382;11.358;2023-12-20T06:43:25;1.70;;;0.73;;
68196;SDS011;55019;49.382;11.358;2023-12-20T06:45:50;0.75;;;0.50;;
68196;SDS011;55019;49.382;11.358;2023-12-20T06:48:16;0.57;;;0.30;;
68196;SDS011;55019;49.382;11.358;2023-12-20T06:50:42;0.57;;;0.50;;
68196;SDS011;55019;49.382;11.358;2023-12-20T06:53:07;0.88;;;0.40;;
68196;SDS011;55019;49.382;11.358;2023-12-20T06:55:35;0.70;;;0.40;;
68196;SDS011;55019;49.382;11.358;2023-12-20T06:58:01;0.90;;;0.57;;
68196;SDS011;55019;49.382;11.358;2023-12-20T07:00:27;0.47;;;0.40;;
68196;SDS011;55019;49.382;11.358;2023-12-20T07:02:53;0.70;;;0.50;;
68196;SDS011;55019;49.382;11.358;2023-12-20T07:05:19;0.52;;;0.50;;
68196;SDS011;55019;49.382;11.358;2023-12-20T07:07:45;1.17;;;0.85;;
68196;SDS011;55019;49.382;11.358;2023-12-20T07:10:12;2.30;;;0.90;;
68196;SDS011;55019;49.382;11.358;2023-12-20T07:12:38;0.70;;;0.63;;
68196;SDS011;55019;49.382;11.358;2023-12-20T07:15:04;0.68;;;0.68;;
68196;SDS011;55019;49.382;11.358;2023-12-20T07:17:31;0.88;;;0.65;;
68196;SDS011;55019;49.382;11.358;2023-12-20T07:19:58;1.02;;;0.55;;
68196;SDS011;55019;49.382;11.358;2023-12-20T07:22:24;0.80;;;0.68;;
68196;SDS011;55019;49.382;11.358;2023-12-20T07:24:50;0.70;;;0.60;;
68196;SDS011;55019;49.382;11.358;2023-12-20T07:27:17;0.82;;;0.63;;
68196;SDS011;55019;49.382;11.358;2023-12-20T07:29:43;1.10;;;0.80;;
68196;SDS011;55019;49.382;11.358;2023-12-20T07:32:09;1.20;;;0.68;;
68196;SDS011;55019;49.382;11.358;2023-12-20T07:34:36;1.33;;;1.05;;
68196;SDS011;55019;49.382;11.358;2023-12-20T07:37:02;0.95;;;0.82;;
68196;SDS011;55019;49.382;11.358;2023-12-20T07:39:27;1.00;;;0.80;;
68196;SDS011;55019;49.382;11.358;2023-12-20T07:41:53;1.33;;;0.98;;
68196;SDS011;55019;49.382;11.358;2023-12-20T07:44:19;1.65;;;0.98;;
68196;SDS011;55019;49.382;11.358;2023-12-20T07:46:44;1.25;;;1.15;;
68196;SDS011;55019;49.382;11.358;2023-12-20T07:49:10;1.55;;;1.30;;
68196;SDS011;55019;49.382;11.358;2023-12-20T07:51:36;1.30;;;1.20;;
68196;SDS011;55019;49.382;11.358;2023-12-20T07:54:02;2.30;;;1.23;;
68196;SDS011;55019;49.382;11.358;2023-12-20T07:56:28;1.30;;;1.17;;
68196;SDS011;55019;49.382;11.358;2023-12-20T07:58:54;0.95;;;0.95;;
68196;SDS011;55019;49.382;11.358;2023-12-20T08:01:20;1.80;;;1.30;;
68196;SDS011;55019;49.382;11.358;2023-12-20T08:03:46;1.05;;;1.02;;
68196;SDS011;55019;49.382;11.358;2023-12-20T08:06:11;1.85;;;0.93;;
68196;SDS011;55019;49.382;11.358;2023-12-20T08:08:37;2.28;;;1.00;;
68196;SDS011;55019;49.382;11.358;2023-12-20T08:11:03;1.30;;;1.05;;
68196;SDS011;55019;49.382;11.358;2023-12-20T08:13:29;2.22;;;1.40;;
68196;SDS011;55019;49.382;11.358;2023-12-20T08:15:55;1.35;;;1.05;;
68196;SDS011;55019;49.382;11.358;2023-12-20T08:18:21;1.38;;;1.27;;
68196;SDS011;55019;49.382;11.358;2023-12-20T08:20:48;1.35;;;1.20;;
68196;SDS011;55019;49.382;11.358;2023-12-20T08:23:14;1.42;;;1.30;;
68196;SDS011;55019;49.382;11.358;2023-12-20T08:25:40;1.60;;;1.30;;
68196;SDS011;55019;49.382;11.358;2023-12-20T08:28:06;1.75;;;1.30;;
68196;SDS011;55019;49.382;11.358;2023-12-20T08:30:32;1.90;;;1.30;;
68196;SDS011;55019;49.382;11.358;2023-12-20T08:33:01;2.53;;;1.20;;
68196;SDS011;55019;49.382;11.358;2023-12-20T08:35:27;1.70;;;1.13;;
68196;SDS011;55019;49.382;11.358;2023-12-20T08:37:53;1.80;;;1.20;;
68196;SDS011;55019;49.382;11.358;2023-12-20T08:40:19;2.67;;;1.30;;
68196;SDS011;55019;49.382;11.358;2023-12-20T08:42:45;1.52;;;1.10;;
68196;SDS011;55019;49.382;11.358;2023-12-20T08:45:11;1.45;;;1.35;;
68196;SDS011;55019;49.382;11.358;2023-12-20T08:47:37;1.20;;;1.00;;
68196;SDS011;55019;49.382;11.358;2023-12-20T08:50:03;2.97;;;1.30;;
68196;SDS011;55019;49.382;11.358;2023-12-20T08:52:29;1.23;;;1.13;;
68196;SDS011;55019;49.382;11.358;2023-12-20T08:54:54;1.83;;;1.33;;
68196;SDS011;55019;49.382;11.358;2023-12-20T08:57:20;2.05;;;1.17;;
68196;SDS011;55019;49.382;11.358;2023-12-20T08:59:47;1.50;;;1.17;;
68196;SDS011;55019;49.382;11.358;2023-12-20T09:02:13;1.67;;;1.25;;
68196;SDS011;55019;49.382;11.358;2023-12-20T09:04:39;2.08;;;1.20;;
68196;SDS011;55019;49.382;11.358;2023-12-20T09:07:05;1.45;;;1.33;;
68196;SDS011;55019;49.382;11.358;2023-12-20T09:09:31;2.08;;;1.38;;
68196;SDS011;55019;49.382;11.358;2023-12-20T09:11:57;2.05;;;1.15;;
68196;SDS011;55019;49.382;11.358;2023-12-20T09:14:23;1.52;;;1.05;;
68196;SDS011;55019;49.382;11.358;2023-12-20T09:16:49;1.45;;;0.98;;
68196;SDS011;55019;49.382;11.358;2023-12-20T09:19:16;1.60;;;1.27;;
68196;SDS011;55019;49.382;11.358;2023-12-20T09:21:43;2.00;;;1.10;;
68196;SDS011;55019;49.382;11.358;2023-12-20T09:24:09;1.30;;;0.80;;
68196;SDS011;55019;49.382;11.358;2023-12-20T09:26:34;1.30;;;1.02;;
68196;SDS011;55019;49.382;11.358;2023-12-20T09:29:00;1.98;;;1.00;;
68196;SDS011;55019;49.382;11.358;2023-12-20T09:31:26;1.55;;;0.90;;
68196;SDS011;55019;49.382;11.358;2023-12-20T09:33:52;1.85;;;0.93;;
68196;SDS011;55019;49.382;11.358;2023-12-20T09:36:18;3.13;;;0.93;;
68196;SDS011;55019;49.382;11.358;2023-12-20T09:38:44;1.65;;;1.20;;
68196;SDS011;55019;49.382;11.358;2023-12-20T09:41:09;2.50;;;1.17;;
68196;SDS011;55019;49.382;11.358;2023-12-20T09:43:35;1.63;;;1.30;;
68196;SDS011;55019;49.382;11.358;2023-12-20T09:46:05;1.48;;;1.10;;
68196;SDS011;55019;49.382;11.358;2023-12-20T09:48:36;1.10;;;0.93;;
68196;SDS011;55019;49.382;11.358;2023-12-20T09:51:02;3.25;;;1.35;;
68196;SDS011;55019;49.382;11.358;2023-12-20T09:53:28;1.10;;;0.73;;
68196;SDS011;55019;49.382;11.358;2023-12-20T09:56:00;1.38;;;0.75;;
68196;SDS011;55019;49.382;11.358;2023-12-20T09:58:27;0.95;;;0.80;;
68196;SDS011;55019;49.382;11.358;2023-12-20T10:00:53;1.13;;;0.70;;
68196;SDS011;55019;49.382;11.358;2023-12-20T10:03:24;0.77;;;0.50;;
68196;SDS011;55019;49.382;11.358;2023-12-20T10:05:52;1.15;;;0.40;;
68196;SDS011;55019;49.382;11.358;2023-12-20T10:08:21;1.20;;;0.70;;
68196;SDS011;55019;49.382;11.358;2023-12-20T10:10:47;1.65;;;0.43;;
68196;SDS011;55019;49.382;11.358;2023-12-20T10:13:14;0.90;;;0.43;;
68196;SDS011;55019;49.382;11.358;2023-12-20T10:15:40;1.15;;;0.57;;
68196;SDS011;55019;49.382;11.358;2023-12-20T10:18:06;1.63;;;0.32;;
68196;SDS011;55019;49.382;11.358;2023-12-20T10:20:32;0.73;;;0.25;;
68196;SDS011;55019;49.382;11.358;2023-12-20T10:22:58;0.55;;;0.20;;
68196;SDS011;55019;49.382;11.358;2023-12-20T10:25:27;1.08;;;0.47;;
68196;SDS011;55019;49.382;11.358;2023-12-20T10:28:11;1.33;;;0.40;;
68196;SDS011;55019;49.382;11.358;2023-12-20T10:30:39;1.85;;;0.45;;
68196;SDS011;55019;49.382;11.358;2023-12-20T10:33:06;2.25;;;0.47;;
68196;SDS011;55019;49.382;11.358;2023-12-20T10:35:37;2.28;;;0.43;;
68196;SDS011;55019;49.382;11.358;2023-12-20T10:38:05;1.67;;;0.30;;
68196;SDS011;55019;49.382;11.358;2023-12-20T10:40:35;0.80;;;0.47;;
68196;SDS011;55019;49.382;11.358;2023-12-20T10:43:02;1.23;;;0.50;;
68196;SDS011;55019;49.382;11.358;2023-12-20T10:45:29;1.48;;;0.50;;
68196;SDS011;55019;49.382;11.358;2023-12-20T10:47:55;1.08;;;0.63;;
68196;SDS011;55019;49.382;11.358;2023-12-20T10:50:22;2.25;;;0.65;;
68196;SDS011;55019;49.382;11.358;2023-12-20T10:52:47;1.73;;;0.52;;
68196;SDS011;55019;49.382;11.358;2023-12-20T10:55:17;0.60;;;0.30;;
68196;SDS011;55019;49.382;11.358;2023-12-20T10:57:47;3.50;;;0.60;;
68196;SDS011;55019;49.382;11.358;2023-12-20T11:00:17;1.00;;;0.45;;
68196;SDS011;55019;49.382;11.358;2023-12-20T11:02:44;2.97;;;0.50;;
68196;SDS011;55019;49.382;11.358;2023-12-20T11:07:49;4.22;;;0.50;;
68196;SDS011;55019;49.382;11.358;2023-12-20T11:10:26;0.43;;;0.30;;
68196;SDS011;55019;49.382;11.358;2023-12-20T11:12:57;2.05;;;0.70;;
68196;SDS011;55019;49.382;11.358;2023-12-20T11:15:35;0.93;;;0.20;;
68196;SDS011;55019;49.382;11.358;2023-12-20T11:18:03;1.95;;;0.65;;
68196;SDS011;55019;49.382;11.358;2023-12-20T11:20:35;2.17;;;0.57;;
68196;SDS011;55019;49.382;11.358;2023-12-20T11:23:03;1.13;;;0.45;;
68196;SDS011;55019;49.382;11.358;2023-12-20T11:28:11;1.27;;;0.60;;
68196;SDS011;55019;49.382;11.358;2023-12-20T11:30:45;3.08;;;0.55;;
68196;SDS011;55019;49.382;11.358;2023-12-20T11:33:12;0.73;;;0.43;;
68196;SDS011;55019;49.382;11.358;2023-12-20T11:35:42;1.05;;;0.40;;
68196;SDS011;55019;49.382;11.358;2023-12-20T11:38:10;1.95;;;0.65;;
68196;SDS011;55019;49.382;11.358;2023-12-20T11:40:36;2.25;;;0.50;;
68196;SDS011;55019;49.382;11.358;2023-12-20T11:43:03;3.85;;;0.80;;
68196;SDS011;55019;49.382;11.358;2023-12-20T11:47:58;2.83;;;0.50;;
68196;SDS011;55019;49.382;11.358;2023-12-20T11:50:24;3.45;;;0.47;;
68196;SDS011;55019;49.382;11.358;2023-12-20T11:52:51;2.22;;;0.38;;
68196;SDS011;55019;49.382;11.358;2023-12-20T11:55:18;1.88;;;0.50;;
68196;SDS011;55019;49.382;11.358;2023-12-20T11:57:49;0.73;;;0.40;;
68196;SDS011;55019;49.382;11.358;2023-12-20T12:00:16;1.05;;;0.47;;
68196;SDS011;55019;49.382;11.358;2023-12-20T12:05:20;1.27;;;0.30;;
68196;SDS011;55019;49.382;11.358;2023-12-20T12:07:45;5.68;;;1.20;;
68196;SDS011;55019;49.382;11.358;2023-12-20T12:10:11;3.50;;;0.63;;
68196;SDS011;55019;49.382;11.358;2023-12-20T12:12:37;1.25;;;0.70;;
68196;SDS011;55019;49.382;11.358;2023-12-20T12:15:03;1.42;;;0.50;;
68196;SDS011;55019;49.382;11.358;2023-12-20T12:17:30;1.70;;;0.57;;
68196;SDS011;55019;49.382;11.358;2023-12-20T12:20:05;0.93;;;0.45;;
68196;SDS011;55019;49.382;11.358;2023-12-20T12:22:33;1.42;;;0.50;;
68196;SDS011;55019;49.382;11.358;2023-12-20T12:24:59;0.85;;;0.47;;
68196;SDS011;55019;49.382;11.358;2023-12-20T12:27:36;1.90;;;0.70;;
68196;SDS011;55019;49.382;11.358;2023-12-20T12:30:04;2.88;;;0.63;;
68196;SDS011;55019;49.382;11.358;2023-12-20T12:32:32;1.58;;;0.55;;
68196;SDS011;55019;49.382;11.358;2023-12-20T12:34:58;1.65;;;0.50;;
68196;SDS011;55019;49.382;11.358;2023-12-20T12:37:24;2.55;;;1.17;;
68196;SDS011;55019;49.382;11.358;2023-12-20T12:39:50;2.80;;;1.20;;
68196;SDS011;55019;49.382;11.358;2023-12-20T12:42:18;2.17;;;0.95;;
68196;SDS011;55019;49.382;11.358;2023-12-20T12:44:44;1.50;;;0.52;;
68196;SDS011;55019;49.382;11.358;2023-12-20T12:47:10;1.63;;;0.60;;
68196;SDS011;55019;49.382;11.358;2023-12-20T12:49:35;1.23;;;0.52;;
68196;SDS011;55019;49.382;11.358;2023-12-20T12:52:01;1.90;;;0.57;;
68196;SDS011;55019;49.382;11.358;2023-12-20T12:54:28;1.35;;;0.90;;
68196;SDS011;55019;49.382;11.358;2023-12-20T12:56:54;1.80;;;0.57;;
68196;SDS011;55019;49.382;11.358;2023-12-20T12:59:19;3.60;;;0.60;;
68196;SDS011;55019;49.382;11.358;2023-12-20T13:01:45;1.60;;;0.82;;
68196;SDS011;55019;49.382;11.358;2023-12-20T13:04:11;2.38;;;0.63;;
68196;SDS011;55019;49.382;11.358;2023-12-20T13:06:37;2.20;;;0.50;;
68196;SDS011;55019;49.382;11.358;2023-12-20T13:09:03;4.13;;;0.70;;
68196;SDS011;55019;49.382;11.358;2023-12-20T13:11:31;5.80;;;0.70;;
68196;SDS011;55019;49.382;11.358;2023-12-20T13:13:58;1.95;;;0.60;;
68196;SDS011;55019;49.382;11.358;2023-12-20T13:16:25;1.88;;;0.80;;
68196;SDS011;55019;49.382;11.358;2023-12-20T13:18:52;0.93;;;0.45;;
68196;SDS011;55019;49.382;11.358;2023-12-20T13:21:18;0.93;;;0.47;;
68196;SDS011;55019;49.382;11.358;2023-12-20T13:23:44;5.68;;;1.05;;
68196;SDS011;55019;49.382;11.358;2023-12-20T13:26:09;1.88;;;0.43;;
68196;SDS011;55019;49.382;11.358;2023-12-20T13:28:35;2.50;;;0.90;;
68196;SDS011;55019;49.382;11.358;2023-12-20T13:31:01;1.83;;;0.80;;
68196;SDS011;55019;49.382;11.358;2023-12-20T13:33:27;1.42;;;0.60;;
68196;SDS011;55019;49.382;11.358;2023-12-20T13:35:52;2.42;;;0.80;;
68196;SDS011;55019;49.382;11.358;2023-12-20T13:38:18;3.67;;;1.35;;
68196;SDS011;55019;49.382;11.358;2023-12-20T13:40:44;2.33;;;0.85;;
68196;SDS011;55019;49.382;11.358;2023-12-20T13:43:10;2.78;;;0.60;;
68196;SDS011;55019;49.382;11.358;2023-12-20T13:45:38;1.42;;;0.70;;
68196;SDS011;55019;49.382;11.358;2023-12-20T13:48:03;2.67;;;0.70;;
68196;SDS011;55019;49.382;11.358;2023-12-20T13:50:29;1.40;;;0.82;;
68196;SDS011;55019;49.382;11.358;2023-12-20T13:52:55;1.73;;;0.68;;
68196;SDS011;55019;49.382;11.358;2023-12-20T13:55:21;4.00;;;1.20;;
68196;SDS011;55019;49.382;11.358;2023-12-20T13:57:50;2.53;;;0.95;;
68196;SDS011;55019;49.382;11.358;2023-12-20T14:00:16;1.13;;;0.57;;
68196;SDS011;55019;49.382;11.358;2023-12-20T14:02:42;1.13;;;0.70;;
68196;SDS011;55019;49.382;11.358;2023-12-20T14:05:08;1.98;;;0.47;;
68196;SDS011;55019;49.382;11.358;2023-12-20T14:07:35;2.13;;;0.70;;
68196;SDS011;55019;49.382;11.358;2023-12-20T14:10:01;1.85;;;0.70;;
68196;SDS011;55019;49.382;11.358;2023-12-20T14:12:27;2.58;;;0.82;;
68196;SDS011;55019;49.382;11.358;2023-12-20T14:14:53;2.00;;;0.63;;
68196;SDS011;55019;49.382;11.358;2023-12-20T14:17:21;2.20;;;0.80;;
68196;SDS011;55019;49.382;11.358;2023-12-20T14:19:47;2.38;;;0.70;;
68196;SDS011;55019;49.382;11.358;2023-12-20T14:22:13;1.15;;;0.55;;
68196;SDS011;55019;49.382;11.358;2023-12-20T14:24:42;1.25;;;0.50;;
68196;SDS011;55019;49.382;11.358;2023-12-20T14:27:08;3.22;;;1.00;;
68196;SDS011;55019;49.382;11.358;2023-12-20T14:29:34;2.10;;;1.05;;
68196;SDS011;55019;49.382;11.358;2023-12-20T14:32:00;1.05;;;0.50;;
68196;SDS011;55019;49.382;11.358;2023-12-20T14:34:29;0.80;;;0.40;;
68196;SDS011;55019;49.382;11.358;2023-12-20T14:36:55;3.03;;;0.57;;
68196;SDS011;55019;49.382;11.358;2023-12-20T14:39:21;1.23;;;0.70;;
68196;SDS011;55019;49.382;11.358;2023-12-20T14:41:46;2.38;;;0.70;;